Sks Delta — LAIU7 — position and weather

sailwx.info

Track history (hours):
 
Tides and Currents Weather Stations Pressure Air Temp Water Temp Dewpoint Dewpoint Depression Visibility Wind Speed Wind Dir Waves Ship Positions

Sks Delta

Last reported at 2017-Nov-16 10:10 UTC. Time now 2017-Nov-24 02:20 UTC.
Position N 01°14' E 104°02'.

Length 250 m; draft 13.9 m.

Type: Tanker. MMSI: 257464000.

Date/timePositionNaut miles runAvg speedWind from/ knotsBaromVisibWave heightAir tempDewpointWater temp
2017-Nov-16 10:10N 01°14' E 104°02'2 9.0
2017-Nov-16 09:55N 01°14' E 103°59'410.5
2017-Nov-16 09:30N 01°13' E 103°55'612.3
2017-Nov-16 09:00N 01°10' E 103°50'713.0
2017-Nov-16 08:30N 01°06' E 103°45'612.7
2017-Nov-16 08:00N 01°03' E 103°39'611.4
2017-Nov-16 07:30N 01°06' E 103°34'5 9.8
2017-Nov-16 07:00N 01°10' E 103°33'4 7.8
2017-Nov-16 06:30N 01°14' E 103°34'2 4.1
2017-Nov-16 06:00N 01°16' E 103°35'1 1.2
2017-Nov-16 05:28N 01°16' E 103°35'0 0.0
2017-Nov-16 04:58N 01°16' E 103°35'0 0.1
2017-Nov-16 04:28N 01°16' E 103°35'0 0.0
2017-Nov-16 03:49N 01°16' E 103°35'0 0.0
2017-Nov-16 03:22N 01°16' E 103°35'0 0.1
2017-Nov-16 02:55N 01°16' E 103°35'0 0.1
2017-Nov-16 02:28N 01°16' E 103°35'0 0.1
2017-Nov-16 01:55N 01°16' E 103°35'0 0.1
2017-Nov-16 01:25N 01°16' E 103°35'0 0.2
2017-Nov-16 00:52N 01°17' E 103°35'0 0.2
2017-Nov-16 00:28N 01°17' E 103°35'0 0.1
2017-Nov-15 23:58N 01°17' E 103°35'0 0.1
2017-Nov-15 23:28N 01°17' E 103°35'0 0.0
2017-Nov-15 22:58N 01°17' E 103°35'0 0.2
2017-Nov-15 22:25N 01°17' E 103°35'0 0.2
2017-Nov-15 21:55N 01°16' E 103°35'0 0.2
2017-Nov-15 21:25N 01°16' E 103°35'0 0.0
2017-Nov-15 20:43N 01°16' E 103°35'0 0.0
2017-Nov-15 19:40N 01°16' E 103°35'0 0.3
2017-Nov-15 19:28N 01°16' E 103°35'0 0.0
2017-Nov-15 18:55N 01°16' E 103°35'0 0.0
2017-Nov-15 18:28N 01°16' E 103°35'0 0.0
2017-Nov-15 17:58N 01°16' E 103°35'0 0.1
2017-Nov-15 17:25N 01°16' E 103°35'0 0.0
2017-Nov-15 16:52N 01°16' E 103°35'0 0.1
2017-Nov-15 16:16N 01°16' E 103°35'0 0.2
2017-Nov-15 15:58N 01°16' E 103°35'0 0.1
2017-Nov-15 15:25N 01°16' E 103°35'0 0.0
2017-Nov-15 14:58N 01°16' E 103°35'0 0.2
2017-Nov-15 14:28N 01°16' E 103°35'0 0.1
2017-Nov-15 13:55N 01°16' E 103°35'0 0.0
2017-Nov-15 13:25N 01°16' E 103°35'0 0.1
2017-Nov-15 12:49N 01°16' E 103°35'0 0.1
2017-Nov-15 12:28N 01°17' E 103°35'0 0.1
2017-Nov-15 11:58N 01°17' E 103°35'0 0.2
2017-Nov-15 11:28N 01°17' E 103°35'0 0.1
2017-Nov-15 10:58N 01°17' E 103°35'0 0.0
2017-Nov-15 10:25N 01°16' E 103°35'0 0.0
2017-Nov-15 09:55N 01°17' E 103°35'0 0.1
2017-Nov-15 09:16N 01°16' E 103°35'0 0.1
2017-Nov-15 08:55N 01°16' E 103°35'0 0.0
2017-Nov-15 08:25N 01°16' E 103°35'0 0.0
2017-Nov-15 07:58N 01°16' E 103°35'0 0.1
2017-Nov-15 07:25N 01°16' E 103°35'0 0.3
2017-Nov-15 06:55N 01°16' E 103°35'0 0.1
2017-Nov-15 06:22N 01°16' E 103°35'0 0.0
2017-Nov-15 05:55N 01°16' E 103°35'0 0.2
2017-Nov-15 05:28N 01°16' E 103°35'0 0.0
2017-Nov-15 04:49N 01°16' E 103°35'0 0.0
2017-Nov-15 04:28N 01°16' E 103°35'0 0.0
2017-Nov-15 03:49N 01°16' E 103°35'0 0.0
2017-Nov-15 03:22N 01°16' E 103°35'0 0.0
2017-Nov-15 02:55N 01°16' E 103°35'0 0.0
2017-Nov-15 02:28N 01°16' E 103°35'0 0.0
2017-Nov-15 01:58N 01°16' E 103°35'0 0.1
2017-Nov-15 01:28N 01°16' E 103°35'0 0.1
2017-Nov-15 00:58N 01°16' E 103°35'0 0.1
2017-Nov-15 00:25N 01°17' E 103°35'0 0.0
2017-Nov-14 23:58N 01°17' E 103°35'0 0.0
2017-Nov-14 23:28N 01°17' E 103°35'0 0.1
2017-Nov-14 22:52N 01°17' E 103°35'0 0.0
2017-Nov-14 22:28N 01°17' E 103°35'0 0.2
2017-Nov-14 21:49N 01°17' E 103°35'0 0.2
2017-Nov-14 21:25N 01°17' E 103°35'0 0.2
2017-Nov-14 20:58N 01°16' E 103°35'0 0.1
2017-Nov-14 20:22N 01°16' E 103°35'0 0.0
2017-Nov-14 19:58N 01°16' E 103°35'0 0.0
2017-Nov-14 19:25N 01°16' E 103°35'0 0.0
2017-Nov-14 18:46N 01°16' E 103°35'0 0.0
2017-Nov-14 18:16N 01°16' E 103°35'0 0.0
2017-Nov-14 17:58N 01°16' E 103°35'0 0.0
2017-Nov-14 17:28N 01°16' E 103°35'0 0.0
2017-Nov-14 16:52N 01°16' E 103°35'0 0.1
2017-Nov-14 16:25N 01°16' E 103°35'0 0.0
2017-Nov-14 15:55N 01°16' E 103°35'0 0.1
2017-Nov-14 15:22N 01°16' E 103°35'0 0.0
2017-Nov-14 14:58N 01°16' E 103°35'0 0.1
2017-Nov-14 14:28N 01°16' E 103°35'0 0.1
2017-Nov-14 13:58N 01°16' E 103°35'0 0.0
2017-Nov-14 13:28N 01°16' E 103°35'0 0.0
2017-Nov-14 12:55N 01°16' E 103°35'0 0.1
2017-Nov-14 12:25N 01°17' E 103°35'0 0.0
2017-Nov-14 11:43N 01°17' E 103°35'0 0.0
2017-Nov-14 11:13N 01°17' E 103°35'0 0.1
2017-Nov-14 10:45N 01°17' E 103°35'0 0.0
2017-Nov-14 10:29N 01°17' E 103°35'0 0.0
2017-Nov-14 09:59N 01°17' E 103°35'0 0.1
2017-Nov-14 09:30N 01°17' E 103°35'0 0.1
2017-Nov-14 08:59N 01°17' E 103°35'0 0.1
2017-Nov-14 08:30N 01°17' E 103°35'0 0.1
2017-Nov-14 08:00N 01°16' E 103°35'0 0.1
2017-Nov-14 07:30N 01°16' E 103°35'0 0.2
2017-Nov-14 07:00N 01°16' E 103°35'0 0.8
2017-Nov-14 06:30N 01°16' E 103°35'2 3.6
2017-Nov-14 06:01N 01°15' E 103°34'3 5.5
2017-Nov-14 05:30N 01°12' E 103°32'4 7.6
2017-Nov-14 05:01N 01°10' E 103°29'4 7.5
2017-Nov-14 04:30N 01°11' E 103°25'7 8.0
2017-Nov-14 03:40N 01°15' E 103°20'  
Track history (hours):
 
Tides and Currents Weather Stations Pressure Air Temp Water Temp Dewpoint Dewpoint Depression Visibility Wind Speed Wind Dir Waves Ship Positions

Sks Delta

Last reported at 2017-Nov-16 10:10 UTC. Time now 2017-Nov-24 02:20 UTC.
Position N 01°14' E 104°02'.

Length 250 m; draft 13.9 m.

Type: Tanker. MMSI: 257464000.

Date/timePositionNaut miles runAvg speedWind from/ knotsBaromVisibWave heightAir tempDewpointWater temp
2017-Nov-16 10:10N 01°14' E 104°02'2 9.0
2017-Nov-16 09:55N 01°14' E 103°59'410.5
2017-Nov-16 09:30N 01°13' E 103°55'612.3
2017-Nov-16 09:00N 01°10' E 103°50'713.0
2017-Nov-16 08:30N 01°06' E 103°45'612.7
2017-Nov-16 08:00N 01°03' E 103°39'611.4
2017-Nov-16 07:30N 01°06' E 103°34'5 9.8
2017-Nov-16 07:00N 01°10' E 103°33'4 7.8
2017-Nov-16 06:30N 01°14' E 103°34'2 4.1
2017-Nov-16 06:00N 01°16' E 103°35'1 1.2
2017-Nov-16 05:28N 01°16' E 103°35'0 0.0
2017-Nov-16 04:58N 01°16' E 103°35'0 0.1
2017-Nov-16 04:28N 01°16' E 103°35'0 0.0
2017-Nov-16 03:49N 01°16' E 103°35'0 0.0
2017-Nov-16 03:22N 01°16' E 103°35'0 0.1
2017-Nov-16 02:55N 01°16' E 103°35'0 0.1
2017-Nov-16 02:28N 01°16' E 103°35'0 0.1
2017-Nov-16 01:55N 01°16' E 103°35'0 0.1
2017-Nov-16 01:25N 01°16' E 103°35'0 0.2
2017-Nov-16 00:52N 01°17' E 103°35'0 0.2
2017-Nov-16 00:28N 01°17' E 103°35'0 0.1
2017-Nov-15 23:58N 01°17' E 103°35'0 0.1
2017-Nov-15 23:28N 01°17' E 103°35'0 0.0
2017-Nov-15 22:58N 01°17' E 103°35'0 0.2
2017-Nov-15 22:25N 01°17' E 103°35'0 0.2
2017-Nov-15 21:55N 01°16' E 103°35'0 0.2
2017-Nov-15 21:25N 01°16' E 103°35'0 0.0
2017-Nov-15 20:43N 01°16' E 103°35'0 0.0
2017-Nov-15 19:40N 01°16' E 103°35'0 0.3
2017-Nov-15 19:28N 01°16' E 103°35'0 0.0
2017-Nov-15 18:55N 01°16' E 103°35'0 0.0
2017-Nov-15 18:28N 01°16' E 103°35'0 0.0
2017-Nov-15 17:58N 01°16' E 103°35'0 0.1
2017-Nov-15 17:25N 01°16' E 103°35'0 0.0
2017-Nov-15 16:52N 01°16' E 103°35'0 0.1
2017-Nov-15 16:16N 01°16' E 103°35'0 0.2
2017-Nov-15 15:58N 01°16' E 103°35'0 0.1
2017-Nov-15 15:25N 01°16' E 103°35'0 0.0
2017-Nov-15 14:58N 01°16' E 103°35'0 0.2
2017-Nov-15 14:28N 01°16' E 103°35'0 0.1
2017-Nov-15 13:55N 01°16' E 103°35'0 0.0
2017-Nov-15 13:25N 01°16' E 103°35'0 0.1
2017-Nov-15 12:49N 01°16' E 103°35'0 0.1
2017-Nov-15 12:28N 01°17' E 103°35'0 0.1
2017-Nov-15 11:58N 01°17' E 103°35'0 0.2
2017-Nov-15 11:28N 01°17' E 103°35'0 0.1
2017-Nov-15 10:58N 01°17' E 103°35'0 0.0
2017-Nov-15 10:25N 01°16' E 103°35'0 0.0
2017-Nov-15 09:55N 01°17' E 103°35'0 0.1
2017-Nov-15 09:16N 01°16' E 103°35'0 0.1
2017-Nov-15 08:55N 01°16' E 103°35'0 0.0
2017-Nov-15 08:25N 01°16' E 103°35'0 0.0
2017-Nov-15 07:58N 01°16' E 103°35'0 0.1
2017-Nov-15 07:25N 01°16' E 103°35'0 0.3
2017-Nov-15 06:55N 01°16' E 103°35'0 0.1
2017-Nov-15 06:22N 01°16' E 103°35'0 0.0
2017-Nov-15 05:55N 01°16' E 103°35'0 0.2
2017-Nov-15 05:28N 01°16' E 103°35'0 0.0
2017-Nov-15 04:49N 01°16' E 103°35'0 0.0
2017-Nov-15 04:28N 01°16' E 103°35'0 0.0
2017-Nov-15 03:49N 01°16' E 103°35'0 0.0
2017-Nov-15 03:22N 01°16' E 103°35'0 0.0
2017-Nov-15 02:55N 01°16' E 103°35'0 0.0
2017-Nov-15 02:28N 01°16' E 103°35'0 0.0
2017-Nov-15 01:58N 01°16' E 103°35'0 0.1
2017-Nov-15 01:28N 01°16' E 103°35'0 0.1
2017-Nov-15 00:58N 01°16' E 103°35'0 0.1
2017-Nov-15 00:25N 01°17' E 103°35'0 0.0
2017-Nov-14 23:58N 01°17' E 103°35'0 0.0
2017-Nov-14 23:28N 01°17' E 103°35'0 0.1
2017-Nov-14 22:52N 01°17' E 103°35'0 0.0
2017-Nov-14 22:28N 01°17' E 103°35'0 0.2
2017-Nov-14 21:49N 01°17' E 103°35'0 0.2
2017-Nov-14 21:25N 01°17' E 103°35'0 0.2
2017-Nov-14 20:58N 01°16' E 103°35'0 0.1
2017-Nov-14 20:22N 01°16' E 103°35'0 0.0
2017-Nov-14 19:58N 01°16' E 103°35'0 0.0
2017-Nov-14 19:25N 01°16' E 103°35'0 0.0
2017-Nov-14 18:46N 01°16' E 103°35'0 0.0
2017-Nov-14 18:16N 01°16' E 103°35'0 0.0
2017-Nov-14 17:58N 01°16' E 103°35'0 0.0
2017-Nov-14 17:28N 01°16' E 103°35'0 0.0
2017-Nov-14 16:52N 01°16' E 103°35'0 0.1
2017-Nov-14 16:25N 01°16' E 103°35'0 0.0
2017-Nov-14 15:55N 01°16' E 103°35'0 0.1
2017-Nov-14 15:22N 01°16' E 103°35'0 0.0
2017-Nov-14 14:58N 01°16' E 103°35'0 0.1
2017-Nov-14 14:28N 01°16' E 103°35'0 0.1
2017-Nov-14 13:58N 01°16' E 103°35'0 0.0
2017-Nov-14 13:28N 01°16' E 103°35'0 0.0
2017-Nov-14 12:55N 01°16' E 103°35'0 0.1
2017-Nov-14 12:25N 01°17' E 103°35'0 0.0
2017-Nov-14 11:43N 01°17' E 103°35'0 0.0
2017-Nov-14 11:13N 01°17' E 103°35'0 0.1
2017-Nov-14 10:45N 01°17' E 103°35'0 0.0
2017-Nov-14 10:29N 01°17' E 103°35'0 0.0
2017-Nov-14 09:59N 01°17' E 103°35'0 0.1
2017-Nov-14 09:30N 01°17' E 103°35'0 0.1
2017-Nov-14 08:59N 01°17' E 103°35'0 0.1
2017-Nov-14 08:30N 01°17' E 103°35'0 0.1
2017-Nov-14 08:00N 01°16' E 103°35'0 0.1
2017-Nov-14 07:30N 01°16' E 103°35'0 0.2
2017-Nov-14 07:00N 01°16' E 103°35'0 0.8
2017-Nov-14 06:30N 01°16' E 103°35'2 3.6
2017-Nov-14 06:01N 01°15' E 103°34'3 5.5
2017-Nov-14 05:30N 01°12' E 103°32'4 7.6
2017-Nov-14 05:01N 01°10' E 103°29'4 7.5
2017-Nov-14 04:30N 01°11' E 103°25'7 8.0
2017-Nov-14 03:40N 01°15' E 103°20'  

Dump ship's entire track history